Airport Information

KPUW - Pullman-Moscow Rgnl Airport

KPUW 160753Z AUTO 09010KT 10SM CLR M01/M06 A2992 RMK AO2 SLP155 T10111061 400061050


  • General Information

  • Coordinates: N 46°44'37"/ W 117°6'34"
  • Location: N/A
  • Surveyed Elevation: 2556 MSL

Operations

Flow Name Active Runways Conditions

Green background denotes normal operations.


Common Frequencies

Callsign Frequency Position Name

More at the Document Center


Charts